createdAt,value
2023-02-17T00:00:44.850Z,9.16
2023-02-17T00:02:47.652Z,9.10
2023-02-17T00:04:50.317Z,9.10
2023-02-17T00:06:54.356Z,9.10
2023-02-17T00:08:57.623Z,9.09
2023-02-17T00:11:01.315Z,9.14
2023-02-17T00:13:03.945Z,9.15
2023-02-17T00:15:06.951Z,9.13
2023-02-17T00:17:09.573Z,9.13
2023-02-17T00:19:25.913Z,9.09
2023-02-17T00:21:30.665Z,9.08
2023-02-17T00:23:34.668Z,9.12
2023-02-17T00:25:38.648Z,9.07
2023-02-17T00:27:41.315Z,9.01
2023-02-17T00:29:44.088Z,8.96
2023-02-17T00:31:47.651Z,8.99
2023-02-17T00:33:50.653Z,9.03
2023-02-17T00:35:53.253Z,9.01
2023-02-17T00:37:55.927Z,8.99
2023-02-17T00:39:59.905Z,8.96
2023-02-17T00:42:02.598Z,8.98
2023-02-17T00:44:05.449Z,9.01
2023-02-17T00:46:08.836Z,9.04
2023-02-17T00:48:11.775Z,9.02
2023-02-17T00:50:14.476Z,9.01
2023-02-17T00:52:17.079Z,9.04
2023-02-17T00:54:20.454Z,9.05
2023-02-17T00:56:24.425Z,9.07
2023-02-17T00:58:27.413Z,9.05
2023-02-17T01:00:30.005Z,9.05
2023-02-17T01:02:32.713Z,9.05
2023-02-17T01:04:35.476Z,8.97
2023-02-17T01:06:40.620Z,8.95
2023-02-17T01:08:43.273Z,8.94
2023-02-17T01:10:48.398Z,8.87
2023-02-17T01:12:52.438Z,8.81
2023-02-17T01:14:55.020Z,8.86
2023-02-17T01:16:57.711Z,8.81
2023-02-17T01:19:00.368Z,8.87
2023-02-17T01:21:03.076Z,8.85
2023-02-17T01:23:06.160Z,8.88
2023-02-17T01:25:09.269Z,8.87
2023-02-17T01:27:12.122Z,8.90
2023-02-17T01:29:16.219Z,8.85
2023-02-17T01:31:19.697Z,8.89
2023-02-17T01:33:22.350Z,8.89
2023-02-17T01:35:25.003Z,8.93
2023-02-17T01:37:27.614Z,8.92
2023-02-17T01:39:30.219Z,8.89
2023-02-17T01:41:33.015Z,8.92
2023-02-17T01:43:36.373Z,9.00
2023-02-17T01:45:46.992Z,8.90
2023-02-17T01:47:55.130Z,8.95
2023-02-17T01:49:57.797Z,8.96
2023-02-17T01:52:08.349Z,8.90
2023-02-17T01:54:16.742Z,8.84
2023-02-17T01:56:20.063Z,8.83
2023-02-17T01:58:25.811Z,8.83
2023-02-17T02:00:31.299Z,8.78
2023-02-17T02:02:35.509Z,8.81
2023-02-17T02:04:41.785Z,8.78
2023-02-17T02:06:45.594Z,8.79
2023-02-17T02:08:55.436Z,8.72
2023-02-17T02:10:58.044Z,8.73
2023-02-17T02:13:00.965Z,8.78
2023-02-17T02:15:07.931Z,8.79
2023-02-17T02:17:18.438Z,8.70
2023-02-17T02:19:56.832Z,8.65
2023-02-17T02:22:21.097Z,8.63
2023-02-17T02:24:31.268Z,8.64
2023-02-17T02:27:12.027Z,8.70
2023-02-17T02:29:43.265Z,8.67
2023-02-17T02:31:58.360Z,8.69
2023-02-17T02:34:08.154Z,8.62
2023-02-17T02:36:14.634Z,8.60
2023-02-17T02:38:21.385Z,8.63
2023-02-17T02:40:26.063Z,8.61
2023-02-17T02:42:29.538Z,8.67
2023-02-17T02:44:32.513Z,8.64
2023-02-17T02:46:35.329Z,8.59
2023-02-17T02:48:38.862Z,8.60
2023-02-17T02:50:56.777Z,8.57
2023-02-17T02:53:24.496Z,8.64
2023-02-17T02:55:44.755Z,8.62
2023-02-17T02:57:53.724Z,8.55
2023-02-17T03:00:10.737Z,8.54
2023-02-17T03:02:22.236Z,8.60
2023-02-17T03:04:36.150Z,8.59
2023-02-17T03:06:46.598Z,8.61
2023-02-17T03:08:54.273Z,8.66
2023-02-17T03:10:57.342Z,8.72
2023-02-17T03:13:02.838Z,8.74
2023-02-17T03:15:11.565Z,8.71
2023-02-17T03:17:14.190Z,8.74
2023-02-17T03:19:19.477Z,8.68
2023-02-17T03:21:22.222Z,8.69
2023-02-17T03:23:26.317Z,8.73
2023-02-17T03:25:28.914Z,8.75
2023-02-17T03:27:31.536Z,8.68
2023-02-17T03:29:34.222Z,8.85
2023-02-17T03:31:37.636Z,8.86
2023-02-17T03:33:40.340Z,8.86
2023-02-17T03:35:42.953Z,8.92
2023-02-17T03:37:45.677Z,8.93
2023-02-17T03:39:49.802Z,8.98
2023-02-17T03:41:52.507Z,8.96
2023-02-17T03:43:55.206Z,8.98
2023-02-17T03:45:57.852Z,9.09
2023-02-17T03:48:00.601Z,9.09
2023-02-17T03:50:03.341Z,8.97
2023-02-17T03:52:06.327Z,8.95
2023-02-17T03:54:09.158Z,8.93
2023-02-17T03:56:14.627Z,8.85
2023-02-17T03:58:17.229Z,8.78
2023-02-17T04:00:21.000Z,8.78
2023-02-17T04:02:23.651Z,8.70
2023-02-17T04:04:26.350Z,8.77
2023-02-17T04:06:29.090Z,8.74
2023-02-17T04:08:31.790Z,8.70
2023-02-17T04:10:34.424Z,8.66
2023-02-17T04:12:38.525Z,8.68
2023-02-17T04:14:41.148Z,8.69
2023-02-17T04:16:43.802Z,8.75
2023-02-17T04:18:46.519Z,8.74
2023-02-17T04:20:50.607Z,8.77
2023-02-17T04:22:53.263Z,8.83
2023-02-17T04:24:55.965Z,8.79
2023-02-17T04:26:58.661Z,8.75
2023-02-17T04:29:04.737Z,8.75
2023-02-17T04:31:07.913Z,8.75
2023-02-17T04:33:10.616Z,8.70
2023-02-17T04:35:13.292Z,8.65
2023-02-17T04:37:15.881Z,8.65
2023-02-17T04:39:18.550Z,8.57
2023-02-17T04:41:21.224Z,8.61
2023-02-17T04:43:24.328Z,8.61
2023-02-17T04:45:28.814Z,8.61
2023-02-17T04:47:31.444Z,8.63
2023-02-17T04:49:34.359Z,8.66
2023-02-17T04:51:37.048Z,8.71
2023-02-17T04:53:39.815Z,8.68
2023-02-17T04:55:42.865Z,8.73
2023-02-17T04:57:45.574Z,8.73
2023-02-17T04:59:48.967Z,8.59
2023-02-17T05:01:52.919Z,8.56
2023-02-17T05:03:55.583Z,8.54
2023-02-17T05:05:58.200Z,8.61
2023-02-17T05:08:00.878Z,8.61
2023-02-17T05:10:03.533Z,8.74
2023-02-17T05:12:07.578Z,8.74
2023-02-17T05:14:10.296Z,8.71
2023-02-17T05:16:13.113Z,8.77
2023-02-17T05:18:17.262Z,8.77
2023-02-17T05:20:20.036Z,8.81
2023-02-17T05:22:22.684Z,8.77
2023-02-17T05:24:25.298Z,8.72
2023-02-17T05:26:28.101Z,8.75
2023-02-17T05:28:30.743Z,8.84
2023-02-17T05:30:33.440Z,8.89
2023-02-17T05:32:36.175Z,8.88
2023-02-17T05:34:40.546Z,8.82
2023-02-17T05:36:43.163Z,8.75
2023-02-17T05:38:49.119Z,8.79
2023-02-17T05:40:51.880Z,8.78
2023-02-17T05:42:54.497Z,8.80
2023-02-17T05:44:57.255Z,8.81
2023-02-17T05:46:59.885Z,8.88
2023-02-17T05:49:02.540Z,8.88
2023-02-17T05:51:06.920Z,8.91
2023-02-17T05:53:09.544Z,8.93
2023-02-17T05:55:12.202Z,8.96
2023-02-17T05:57:15.022Z,8.91
2023-02-17T05:59:17.839Z,8.94
2023-02-17T06:01:20.700Z,8.93
2023-02-17T06:03:23.311Z,9.00
2023-02-17T06:05:25.898Z,9.06
2023-02-17T06:07:29.813Z,9.10
2023-02-17T06:09:32.581Z,9.11
2023-02-17T06:11:35.283Z,9.18
2023-02-17T06:13:38.409Z,9.21
2023-02-17T06:15:41.857Z,9.27
2023-02-17T06:17:44.541Z,9.28
2023-02-17T06:19:47.197Z,9.29
2023-02-17T06:21:49.913Z,9.32
2023-02-17T06:23:53.946Z,9.30
2023-02-17T06:25:56.844Z,9.40
2023-02-17T06:27:59.669Z,9.43
2023-02-17T06:30:02.506Z,9.42
2023-02-17T06:32:05.564Z,9.44
2023-02-17T06:34:08.179Z,9.47
2023-02-17T06:36:11.133Z,9.53
2023-02-17T06:38:13.871Z,9.53
2023-02-17T06:40:18.645Z,9.43
2023-02-17T06:42:21.266Z,9.52
2023-02-17T06:44:23.976Z,9.53
2023-02-17T06:46:26.588Z,9.57
2023-02-17T06:48:29.209Z,9.67
2023-02-17T06:50:32.017Z,9.67
2023-02-17T06:52:34.722Z,9.69
2023-02-17T06:54:37.388Z,9.59
2023-02-17T06:56:41.472Z,9.65
2023-02-17T06:58:44.082Z,9.77
2023-02-17T07:00:46.791Z,9.73
2023-02-17T07:02:49.589Z,9.73
2023-02-17T07:04:52.259Z,9.73
2023-02-17T07:06:54.966Z,9.77
2023-02-17T07:08:57.573Z,9.74
2023-02-17T07:11:00.240Z,9.80
2023-02-17T07:13:04.438Z,9.77
2023-02-17T07:15:09.437Z,9.76
2023-02-17T07:17:14.560Z,9.71
2023-02-17T07:19:17.349Z,9.73
2023-02-17T07:21:19.985Z,9.71
2023-02-17T07:23:22.666Z,9.84
2023-02-17T07:25:25.298Z,9.92
2023-02-17T07:27:27.930Z,9.84
2023-02-17T07:29:31.960Z,9.83
2023-02-17T07:31:35.479Z,9.91
2023-02-17T07:33:38.567Z,9.88
2023-02-17T07:35:43.882Z,9.90
2023-02-17T07:37:46.473Z,9.96
2023-02-17T07:39:49.199Z,9.90
2023-02-17T07:41:51.825Z,9.94
2023-02-17T07:43:56.149Z,10.05
2023-02-17T07:46:00.216Z,9.97
2023-02-17T07:48:02.821Z,10.00
2023-02-17T07:50:06.452Z,10.00
2023-02-17T07:52:09.104Z,10.00
2023-02-17T07:54:13.160Z,10.07
2023-02-17T07:56:17.274Z,10.10
2023-02-17T07:58:19.854Z,10.17
2023-02-17T08:00:22.891Z,9.97
2023-02-17T08:02:27.044Z,10.07
2023-02-17T08:04:29.731Z,10.05
2023-02-17T08:06:32.763Z,9.99
2023-02-17T08:08:53.164Z,10.07
2023-02-17T08:11:13.373Z,9.98
2023-02-17T08:13:21.965Z,9.98
2023-02-17T08:15:24.637Z,10.01
2023-02-17T08:17:28.754Z,9.92
2023-02-17T08:19:46.728Z,9.99
2023-02-17T08:21:50.698Z,9.91
2023-02-17T08:23:53.592Z,10.02
2023-02-17T08:25:58.566Z,10.10
2023-02-17T08:28:01.211Z,10.17
2023-02-17T08:30:03.984Z,10.36
2023-02-17T08:32:06.881Z,10.67
2023-02-17T08:34:13.192Z,10.83
2023-02-17T08:36:15.933Z,10.80
2023-02-17T08:38:18.637Z,10.90
2023-02-17T08:40:21.416Z,10.82
2023-02-17T08:42:24.068Z,10.57
2023-02-17T08:44:27.109Z,10.41
2023-02-17T08:46:30.979Z,10.36
2023-02-17T08:48:35.873Z,10.34
2023-02-17T08:50:40.693Z,10.41
2023-02-17T08:52:43.570Z,10.56
2023-02-17T08:54:46.425Z,10.60
2023-02-17T08:56:49.082Z,10.78
2023-02-17T08:58:52.046Z,10.70
2023-02-17T09:00:54.705Z,10.71
2023-02-17T09:02:57.322Z,10.60
2023-02-17T09:05:00.110Z,10.64
2023-02-17T09:07:04.176Z,10.41
2023-02-17T09:09:08.099Z,10.51
2023-02-17T09:11:11.117Z,10.51
2023-02-17T09:13:13.893Z,10.44
2023-02-17T09:15:16.521Z,10.40
2023-02-17T09:17:19.230Z,10.35
2023-02-17T09:19:22.628Z,10.55
2023-02-17T09:21:25.544Z,10.42
2023-02-17T09:23:29.705Z,10.38
2023-02-17T09:25:32.413Z,10.31
2023-02-17T09:27:35.116Z,10.40
2023-02-17T09:29:38.018Z,10.30
2023-02-17T09:31:40.823Z,10.30
2023-02-17T09:33:44.541Z,10.37
2023-02-17T09:35:47.209Z,10.33
2023-02-17T09:37:49.983Z,10.32
2023-02-17T09:39:53.973Z,10.37
2023-02-17T09:41:57.831Z,10.47
2023-02-17T09:44:01.333Z,10.48
2023-02-17T09:46:15.940Z,10.53
2023-02-17T09:48:21.678Z,10.53
2023-02-17T09:50:30.554Z,10.59
2023-02-17T09:52:40.181Z,10.56
2023-02-17T09:54:54.943Z,10.57
2023-02-17T09:57:01.436Z,10.56
2023-02-17T09:59:09.326Z,10.57
2023-02-17T10:01:19.140Z,10.56
2023-02-17T10:03:30.965Z,10.60
2023-02-17T10:05:37.713Z,10.59
2023-02-17T10:07:44.861Z,10.60
2023-02-17T10:09:51.620Z,10.72
2023-02-17T10:11:56.664Z,10.77
2023-02-17T10:14:04.657Z,11.08
2023-02-17T10:16:14.829Z,11.09
2023-02-17T10:18:21.009Z,11.14
2023-02-17T10:20:27.096Z,11.30
2023-02-17T10:22:32.632Z,11.05
2023-02-17T10:24:35.410Z,11.10
2023-02-17T10:26:53.467Z,11.19
2023-02-17T10:29:04.767Z,11.24
2023-02-17T10:31:14.014Z,11.61
2023-02-17T10:33:26.014Z,11.47
2023-02-17T10:35:43.782Z,11.57
2023-02-17T10:37:49.128Z,11.80
2023-02-17T10:39:53.629Z,11.83
2023-02-17T10:41:59.591Z,11.96
2023-02-17T10:44:10.077Z,12.10
2023-02-17T10:46:16.497Z,12.37
2023-02-17T10:48:22.614Z,12.18
2023-02-17T10:50:26.554Z,12.22
2023-02-17T10:52:37.384Z,12.16
2023-02-17T10:54:48.109Z,12.15
2023-02-17T10:56:55.862Z,12.00
2023-02-17T10:59:06.348Z,12.28
2023-02-17T11:01:09.335Z,12.32
2023-02-17T11:03:20.394Z,12.35
2023-02-17T11:05:26.598Z,12.46
2023-02-17T11:07:35.869Z,12.29
2023-02-17T11:09:45.899Z,12.26
2023-02-17T11:12:00.513Z,12.50
2023-02-17T11:14:13.306Z,12.41
2023-02-17T11:16:28.277Z,12.49
2023-02-17T11:18:34.252Z,12.38
2023-02-17T11:20:38.277Z,12.36
2023-02-17T11:22:44.542Z,12.35
2023-02-17T11:24:58.699Z,12.34
2023-02-17T11:27:03.601Z,12.45
2023-02-17T11:29:16.413Z,12.67
2023-02-17T11:31:27.187Z,12.92
2023-02-17T11:33:33.219Z,13.01
2023-02-17T11:35:48.354Z,12.74
2023-02-17T11:37:51.487Z,12.66
2023-02-17T11:39:56.218Z,12.79
2023-02-17T11:41:59.135Z,12.59
2023-02-17T11:44:01.817Z,12.67
2023-02-17T11:46:18.592Z,12.52
2023-02-17T11:48:45.776Z,12.27
2023-02-17T11:50:53.485Z,12.24
2023-02-17T11:53:09.131Z,12.46
2023-02-17T11:55:20.177Z,12.40
2023-02-17T11:57:36.736Z,12.32
2023-02-17T12:00:00.894Z,12.56
2023-02-17T12:02:16.060Z,12.92
2023-02-17T12:04:27.292Z,12.72
2023-02-17T12:06:39.815Z,12.78
2023-02-17T12:08:47.830Z,12.82
2023-02-17T12:11:07.931Z,12.98
2023-02-17T12:13:25.612Z,12.98
2023-02-17T12:15:38.159Z,12.77
2023-02-17T12:17:47.663Z,12.69
2023-02-17T12:19:57.949Z,12.71
2023-02-17T12:22:14.696Z,12.65
2023-02-17T12:24:35.574Z,12.46
2023-02-17T12:26:40.825Z,12.64
2023-02-17T12:28:59.976Z,12.78
2023-02-17T12:31:11.167Z,12.42
2023-02-17T12:33:31.650Z,12.61
2023-02-17T12:35:43.842Z,12.52
2023-02-17T12:37:51.603Z,12.49
2023-02-17T12:39:57.219Z,12.66
2023-02-17T12:42:03.753Z,12.45
2023-02-17T12:44:07.952Z,12.52
2023-02-17T12:46:16.613Z,12.46
2023-02-17T12:48:27.717Z,12.34
2023-02-17T12:50:36.480Z,12.65
2023-02-17T12:52:43.573Z,12.58
2023-02-17T12:54:52.049Z,12.58
2023-02-17T12:57:06.628Z,12.63
2023-02-17T12:59:17.579Z,12.68
2023-02-17T13:01:22.380Z,12.87
2023-02-17T13:03:30.590Z,12.78
2023-02-17T13:05:41.383Z,12.68
2023-02-17T13:07:50.554Z,12.67
2023-02-17T13:09:55.927Z,12.84
2023-02-17T13:12:10.150Z,12.67
2023-02-17T13:14:13.166Z,12.66
2023-02-17T13:16:16.110Z,12.64
2023-02-17T13:18:30.644Z,12.85
2023-02-17T13:20:55.769Z,12.70
2023-02-17T13:23:07.757Z,12.82
2023-02-17T13:25:13.902Z,12.90
2023-02-17T13:27:22.502Z,13.11
2023-02-17T13:29:36.655Z,12.96
2023-02-17T13:31:52.232Z,12.97
2023-02-17T13:33:58.811Z,12.78
2023-02-17T13:36:13.276Z,12.76
2023-02-17T13:38:27.357Z,12.83
2023-02-17T13:40:39.406Z,12.99
2023-02-17T13:42:44.149Z,12.92
2023-02-17T13:44:49.064Z,13.07
2023-02-17T13:46:52.657Z,12.99
2023-02-17T13:49:07.468Z,12.96
2023-02-17T13:51:26.111Z,12.94
2023-02-17T13:53:31.660Z,12.92
2023-02-17T13:55:34.322Z,13.05
2023-02-17T13:57:38.119Z,12.88
2023-02-17T13:59:40.931Z,13.09
2023-02-17T14:01:44.542Z,13.08
2023-02-17T14:03:50.660Z,13.08
2023-02-17T14:05:55.996Z,13.25
2023-02-17T14:08:04.501Z,12.87
2023-02-17T14:10:18.892Z,12.95
2023-02-17T14:12:24.451Z,12.87
2023-02-17T14:14:30.578Z,13.10
2023-02-17T14:16:36.161Z,12.97
2023-02-17T14:18:42.702Z,12.93
2023-02-17T14:20:45.349Z,13.11
2023-02-17T14:23:04.146Z,13.06
2023-02-17T14:25:12.242Z,13.30
2023-02-17T14:27:14.960Z,13.32
2023-02-17T14:29:17.726Z,13.13
2023-02-17T14:31:22.302Z,13.37
2023-02-17T14:33:26.111Z,13.31
2023-02-17T14:35:28.780Z,13.44
2023-02-17T14:37:36.197Z,13.37
2023-02-17T14:39:40.227Z,13.19
2023-02-17T14:41:43.261Z,13.24
2023-02-17T14:43:46.378Z,13.02
2023-02-17T14:45:49.077Z,13.15
2023-02-17T14:47:51.750Z,13.01
2023-02-17T14:49:54.401Z,12.85
2023-02-17T14:51:57.822Z,12.66
2023-02-17T14:54:03.250Z,12.61
2023-02-17T14:56:10.525Z,12.75
2023-02-17T14:58:19.741Z,12.68
2023-02-17T15:00:22.844Z,12.49
2023-02-17T15:02:25.570Z,12.63
2023-02-17T15:04:28.264Z,12.52
2023-02-17T15:06:37.524Z,12.51
2023-02-17T15:08:40.224Z,12.67
2023-02-17T15:10:43.665Z,12.57
2023-02-17T15:12:47.734Z,12.41
2023-02-17T15:14:50.347Z,12.46
2023-02-17T15:16:53.076Z,12.31
2023-02-17T15:18:55.764Z,12.41
2023-02-17T15:20:58.430Z,12.39
2023-02-17T15:23:01.086Z,12.42
2023-02-17T15:25:03.714Z,12.54
2023-02-17T15:27:07.137Z,12.40
2023-02-17T15:29:16.640Z,12.56
2023-02-17T15:31:20.905Z,12.36
2023-02-17T15:33:24.839Z,12.40
2023-02-17T15:35:28.560Z,12.35
2023-02-17T15:37:31.134Z,12.30
2023-02-17T15:39:33.779Z,12.36
2023-02-17T15:41:36.462Z,12.33
2023-02-17T15:43:39.234Z,12.23
2023-02-17T15:45:43.687Z,12.30
2023-02-17T15:47:46.966Z,12.26
2023-02-17T15:49:49.633Z,12.31
2023-02-17T15:51:52.306Z,12.31
2023-02-17T15:53:54.893Z,12.33
2023-02-17T15:56:01.096Z,12.23
2023-02-17T15:58:05.430Z,12.30
2023-02-17T16:00:17.831Z,12.26
2023-02-17T16:02:24.320Z,12.33
2023-02-17T16:04:26.997Z,12.21
2023-02-17T16:06:30.332Z,12.17
2023-02-17T16:08:32.934Z,12.22
2023-02-17T16:10:36.962Z,12.19
2023-02-17T16:12:40.867Z,12.11
2023-02-17T16:14:45.251Z,12.11
2023-02-17T16:16:47.982Z,12.07
2023-02-17T16:18:52.778Z,12.09
2023-02-17T16:20:55.433Z,12.03
2023-02-17T16:22:58.030Z,12.10
2023-02-17T16:25:00.733Z,12.03
2023-02-17T16:27:03.477Z,12.04
2023-02-17T16:29:14.165Z,12.04
2023-02-17T16:31:16.840Z,12.06
2023-02-17T16:33:19.645Z,11.96
2023-02-17T16:35:25.329Z,11.96
2023-02-17T16:37:27.975Z,11.98
2023-02-17T16:39:30.999Z,11.95
2023-02-17T16:41:33.667Z,11.90
2023-02-17T16:43:36.359Z,11.96
2023-02-17T16:45:46.689Z,11.99
2023-02-17T16:47:51.590Z,12.06
2023-02-17T16:49:54.327Z,12.11
2023-02-17T16:51:58.456Z,12.14
2023-02-17T16:54:01.064Z,12.17
2023-02-17T16:56:14.344Z,12.12
2023-02-17T16:58:19.863Z,12.20
2023-02-17T17:00:27.615Z,12.18
2023-02-17T17:02:30.120Z,12.22
2023-02-17T17:04:32.772Z,12.18
2023-02-17T17:06:36.479Z,12.25
2023-02-17T17:08:40.522Z,12.27
2023-02-17T17:10:44.438Z,12.22
2023-02-17T17:12:47.587Z,12.23
2023-02-17T17:14:50.270Z,12.22
2023-02-17T17:16:56.479Z,12.22
2023-02-17T17:18:59.928Z,12.18
2023-02-17T17:21:02.595Z,12.20
2023-02-17T17:23:08.058Z,12.19
2023-02-17T17:25:12.080Z,12.18
2023-02-17T17:27:14.662Z,12.17
2023-02-17T17:29:18.905Z,12.16
2023-02-17T17:31:22.277Z,12.15
2023-02-17T17:33:25.016Z,12.20
2023-02-17T17:35:28.371Z,12.22
2023-02-17T17:37:31.087Z,12.16
2023-02-17T17:39:33.812Z,12.13
2023-02-17T17:41:37.803Z,12.18
2023-02-17T17:43:40.866Z,12.15
2023-02-17T17:45:43.562Z,12.14
2023-02-17T17:47:46.379Z,12.12
2023-02-17T17:49:49.026Z,12.20
2023-02-17T17:51:51.864Z,12.16
2023-02-17T17:53:54.637Z,12.15
2023-02-17T17:55:57.421Z,12.15
2023-02-17T17:58:01.509Z,12.20
2023-02-17T18:00:06.322Z,12.20
2023-02-17T18:02:09.606Z,12.15
2023-02-17T18:04:12.247Z,12.15
2023-02-17T18:06:19.237Z,12.08
2023-02-17T18:08:21.944Z,12.13
2023-02-17T18:10:24.888Z,12.15
2023-02-17T18:12:27.618Z,12.11
2023-02-17T18:14:32.076Z,12.09
2023-02-17T18:16:36.078Z,12.05
2023-02-17T18:18:39.086Z,12.06
2023-02-17T18:20:42.052Z,12.07
2023-02-17T18:22:45.001Z,12.01
2023-02-17T18:24:47.798Z,12.06
2023-02-17T18:26:51.953Z,12.07
2023-02-17T18:28:54.579Z,12.02
2023-02-17T18:30:59.203Z,12.01
2023-02-17T18:33:02.043Z,11.96
2023-02-17T18:35:05.789Z,11.92
2023-02-17T18:37:08.408Z,11.97
2023-02-17T18:39:11.200Z,11.98
2023-02-17T18:41:18.257Z,11.93
2023-02-17T18:43:20.921Z,11.99
2023-02-17T18:45:24.379Z,11.93
2023-02-17T18:47:28.370Z,11.98
2023-02-17T18:49:31.028Z,12.00
2023-02-17T18:51:33.749Z,11.92
2023-02-17T18:53:36.594Z,11.92
2023-02-17T18:55:39.636Z,11.91
2023-02-17T18:57:42.859Z,11.93
2023-02-17T18:59:45.522Z,11.85
2023-02-17T19:01:48.372Z,11.88
2023-02-17T19:03:52.971Z,11.82
2023-02-17T19:05:55.649Z,11.85
2023-02-17T19:07:58.887Z,11.82
2023-02-17T19:10:01.667Z,11.81
2023-02-17T19:12:05.066Z,11.88
2023-02-17T19:14:07.714Z,11.92
2023-02-17T19:16:12.742Z,11.83
2023-02-17T19:18:15.399Z,11.82
2023-02-17T19:20:19.695Z,11.86
2023-02-17T19:22:22.382Z,11.83
2023-02-17T19:24:25.261Z,11.87
2023-02-17T19:26:27.894Z,11.97
2023-02-17T19:28:30.615Z,12.06
2023-02-17T19:30:33.272Z,11.90
2023-02-17T19:32:35.911Z,11.88
2023-02-17T19:34:39.750Z,12.03
2023-02-17T19:36:43.752Z,11.86
2023-02-17T19:38:46.990Z,11.93
2023-02-17T19:40:49.660Z,11.89
2023-02-17T19:42:52.357Z,11.94
2023-02-17T19:44:55.138Z,12.00
2023-02-17T19:46:58.204Z,12.15
2023-02-17T19:49:00.936Z,12.14
2023-02-17T19:51:06.177Z,11.89
2023-02-17T19:53:10.190Z,12.05
2023-02-17T19:55:13.006Z,12.02
2023-02-17T19:57:17.276Z,12.06
2023-02-17T19:59:20.203Z,11.91
2023-02-17T20:01:24.772Z,11.87
2023-02-17T20:03:27.437Z,12.03
2023-02-17T20:05:31.304Z,11.87
2023-02-17T20:07:34.083Z,12.02
2023-02-17T20:09:38.659Z,12.00
2023-02-17T20:11:41.511Z,12.02
2023-02-17T20:13:46.543Z,11.82
2023-02-17T20:15:58.452Z,11.77
2023-02-17T20:18:01.116Z,11.64
2023-02-17T20:20:03.876Z,11.71
2023-02-17T20:22:07.106Z,11.74
2023-02-17T20:24:09.771Z,11.73
2023-02-17T20:26:16.701Z,11.76
2023-02-17T20:28:19.558Z,11.71
2023-02-17T20:30:22.477Z,11.86
2023-02-17T20:32:25.271Z,11.60
2023-02-17T20:34:30.931Z,11.73
2023-02-17T20:36:33.959Z,11.72
2023-02-17T20:38:37.401Z,11.60
2023-02-17T20:40:40.065Z,11.68
2023-02-17T20:42:44.179Z,11.55
2023-02-17T20:44:50.187Z,11.53
2023-02-17T20:46:53.492Z,11.70
2023-02-17T20:48:56.564Z,11.55
2023-02-17T20:50:59.805Z,11.55
2023-02-17T20:53:02.769Z,11.58
2023-02-17T20:55:05.718Z,11.63
2023-02-17T20:57:13.706Z,11.75
2023-02-17T20:59:17.817Z,11.62
2023-02-17T21:01:20.648Z,11.54
2023-02-17T21:03:23.241Z,11.70
2023-02-17T21:05:26.300Z,11.57
2023-02-17T21:07:28.980Z,11.68
2023-02-17T21:09:31.659Z,11.73
2023-02-17T21:11:34.622Z,11.64
2023-02-17T21:13:37.267Z,11.61
2023-02-17T21:15:41.275Z,11.57
2023-02-17T21:17:44.049Z,11.54
2023-02-17T21:19:47.179Z,11.45
2023-02-17T21:21:49.845Z,11.48
2023-02-17T21:23:52.512Z,11.50
2023-02-17T21:25:55.136Z,11.44
2023-02-17T21:27:57.728Z,11.57
2023-02-17T21:30:00.787Z,11.48
2023-02-17T21:32:05.596Z,11.47
2023-02-17T21:34:09.045Z,11.57
2023-02-17T21:36:13.229Z,11.51
2023-02-17T21:38:16.816Z,11.55
2023-02-17T21:40:19.610Z,11.57
2023-02-17T21:42:36.256Z,11.51
2023-02-17T21:44:55.020Z,11.52
2023-02-17T21:46:57.688Z,11.59
2023-02-17T21:49:02.899Z,11.66
2023-02-17T21:51:07.554Z,11.63
2023-02-17T21:53:10.180Z,11.66
2023-02-17T21:55:12.887Z,11.63
2023-02-17T21:57:15.515Z,11.68
2023-02-17T21:59:18.177Z,11.67
2023-02-17T22:01:22.813Z,11.69
2023-02-17T22:03:25.661Z,11.64
2023-02-17T22:05:32.834Z,11.68
2023-02-17T22:07:36.032Z,11.72
2023-02-17T22:09:38.754Z,11.70
2023-02-17T22:11:42.747Z,11.64
2023-02-17T22:13:45.813Z,11.66
2023-02-17T22:15:57.362Z,11.69
2023-02-17T22:17:59.993Z,11.72
2023-02-17T22:20:03.392Z,11.66
2023-02-17T22:22:07.428Z,11.66
2023-02-17T22:24:10.333Z,11.67
2023-02-17T22:26:15.138Z,11.71
2023-02-17T22:28:17.794Z,11.64
2023-02-17T22:30:20.821Z,11.62
2023-02-17T22:32:23.652Z,11.64
2023-02-17T22:34:27.621Z,11.66
2023-02-17T22:36:33.218Z,11.68
2023-02-17T22:38:37.490Z,11.57
2023-02-17T22:40:41.021Z,11.66
2023-02-17T22:42:43.607Z,11.77
2023-02-17T22:44:46.264Z,11.57
2023-02-17T22:46:48.901Z,11.63
2023-02-17T22:48:52.681Z,11.66
2023-02-17T22:50:55.402Z,11.60
2023-02-17T22:52:57.994Z,11.64
2023-02-17T22:55:02.108Z,11.57
2023-02-17T22:57:04.724Z,11.53
2023-02-17T22:59:07.536Z,11.51
2023-02-17T23:01:12.795Z,11.55
2023-02-17T23:03:16.211Z,11.53
2023-02-17T23:05:20.206Z,11.48
2023-02-17T23:07:23.597Z,11.56
2023-02-17T23:09:26.283Z,11.55
2023-02-17T23:11:49.774Z,11.48
2023-02-17T23:13:52.762Z,11.47
2023-02-17T23:15:55.886Z,11.50
2023-02-17T23:17:58.840Z,11.54
2023-02-17T23:20:01.504Z,11.53
2023-02-17T23:22:07.779Z,11.43
2023-02-17T23:24:10.403Z,11.43
2023-02-17T23:26:14.893Z,11.50
2023-02-17T23:28:19.930Z,11.53
2023-02-17T23:30:23.573Z,11.43
2023-02-17T23:32:26.270Z,11.40
2023-02-17T23:34:29.395Z,11.36
2023-02-17T23:36:32.171Z,11.39
2023-02-17T23:38:35.306Z,11.36
2023-02-17T23:40:38.328Z,11.33
2023-02-17T23:42:40.965Z,11.33
2023-02-17T23:44:44.988Z,11.24
2023-02-17T23:46:47.702Z,11.25
2023-02-17T23:48:50.427Z,11.32
2023-02-17T23:50:57.268Z,11.27
2023-02-17T23:52:59.944Z,11.27
2023-02-17T23:55:02.713Z,11.27
2023-02-17T23:57:05.847Z,11.25
2023-02-17T23:59:08.539Z,11.29
